sensor_id;sensor_type;location;lat;lon;timestamp;P1;durP1;ratioP1;P2;durP2;ratioP2
32826;SDS011;51059;42.058;27.986;2022-09-01T00:00:59;20.47;;;12.20;;
32826;SDS011;51059;42.058;27.986;2022-09-01T00:03:24;22.20;;;12.47;;
32826;SDS011;51059;42.058;27.986;2022-09-01T00:05:50;25.80;;;12.67;;
32826;SDS011;51059;42.058;27.986;2022-09-01T00:08:19;24.20;;;12.03;;
32826;SDS011;51059;42.058;27.986;2022-09-01T00:10:45;23.33;;;12.23;;
32826;SDS011;51059;42.058;27.986;2022-09-01T00:13:11;23.67;;;12.57;;
32826;SDS011;51059;42.058;27.986;2022-09-01T00:15:36;18.10;;;11.73;;
32826;SDS011;51059;42.058;27.986;2022-09-01T00:18:02;20.33;;;11.93;;
32826;SDS011;51059;42.058;27.986;2022-09-01T00:20:28;19.43;;;12.47;;
32826;SDS011;51059;42.058;27.986;2022-09-01T00:22:54;18.70;;;12.30;;
32826;SDS011;51059;42.058;27.986;2022-09-01T00:25:19;23.23;;;12.27;;
32826;SDS011;51059;42.058;27.986;2022-09-01T00:27:46;20.13;;;12.70;;
32826;SDS011;51059;42.058;27.986;2022-09-01T00:30:12;19.93;;;12.00;;
32826;SDS011;51059;42.058;27.986;2022-09-01T00:32:37;18.90;;;11.97;;
32826;SDS011;51059;42.058;27.986;2022-09-01T00:35:03;22.40;;;13.10;;
32826;SDS011;51059;42.058;27.986;2022-09-01T00:37:29;22.40;;;11.88;;
32826;SDS011;51059;42.058;27.986;2022-09-01T00:39:55;25.53;;;12.13;;
32826;SDS011;51059;42.058;27.986;2022-09-01T00:42:20;23.13;;;12.37;;
32826;SDS011;51059;42.058;27.986;2022-09-01T00:44:45;18.90;;;12.10;;
32826;SDS011;51059;42.058;27.986;2022-09-01T00:47:11;23.40;;;12.87;;
32826;SDS011;51059;42.058;27.986;2022-09-01T00:49:41;27.80;;;13.70;;
32826;SDS011;51059;42.058;27.986;2022-09-01T00:52:09;25.47;;;12.27;;
32826;SDS011;51059;42.058;27.986;2022-09-01T00:54:40;22.10;;;12.77;;
32826;SDS011;51059;42.058;27.986;2022-09-01T00:57:07;16.23;;;11.73;;
32826;SDS011;51059;42.058;27.986;2022-09-01T00:59:33;17.30;;;11.73;;
32826;SDS011;51059;42.058;27.986;2022-09-01T01:02:00;20.77;;;12.47;;
32826;SDS011;51059;42.058;27.986;2022-09-01T01:04:25;21.17;;;12.10;;
32826;SDS011;51059;42.058;27.986;2022-09-01T01:06:55;20.23;;;12.10;;
32826;SDS011;51059;42.058;27.986;2022-09-01T01:09:28;23.00;;;12.43;;
32826;SDS011;51059;42.058;27.986;2022-09-01T01:11:53;25.83;;;12.30;;
32826;SDS011;51059;42.058;27.986;2022-09-01T01:14:23;21.90;;;12.30;;
32826;SDS011;51059;42.058;27.986;2022-09-01T01:16:48;18.03;;;11.87;;
32826;SDS011;51059;42.058;27.986;2022-09-01T01:22:13;21.07;;;11.93;;
32826;SDS011;51059;42.058;27.986;2022-09-01T01:25:00;21.13;;;12.07;;
32826;SDS011;51059;42.058;27.986;2022-09-01T01:27:29;20.17;;;11.83;;
32826;SDS011;51059;42.058;27.986;2022-09-01T01:29:55;34.93;;;13.13;;
32826;SDS011;51059;42.058;27.986;2022-09-01T01:32:21;24.70;;;12.43;;
32826;SDS011;51059;42.058;27.986;2022-09-01T01:34:46;22.30;;;11.87;;
32826;SDS011;51059;42.058;27.986;2022-09-01T01:37:12;21.57;;;12.87;;
32826;SDS011;51059;42.058;27.986;2022-09-01T01:39:41;26.90;;;12.80;;
32826;SDS011;51059;42.058;27.986;2022-09-01T01:42:08;22.60;;;12.07;;
32826;SDS011;51059;42.058;27.986;2022-09-01T01:44:34;17.80;;;12.63;;
32826;SDS011;51059;42.058;27.986;2022-09-01T01:47:02;20.80;;;12.10;;
32826;SDS011;51059;42.058;27.986;2022-09-01T01:49:32;26.87;;;12.10;;
32826;SDS011;51059;42.058;27.986;2022-09-01T01:51:58;25.30;;;12.53;;
32826;SDS011;51059;42.058;27.986;2022-09-01T01:54:24;21.50;;;11.90;;
32826;SDS011;51059;42.058;27.986;2022-09-01T01:56:50;20.80;;;12.30;;
32826;SDS011;51059;42.058;27.986;2022-09-01T01:59:16;18.33;;;12.17;;
32826;SDS011;51059;42.058;27.986;2022-09-01T02:01:42;23.30;;;12.13;;
32826;SDS011;51059;42.058;27.986;2022-09-01T02:04:09;25.70;;;12.90;;
32826;SDS011;51059;42.058;27.986;2022-09-01T02:06:35;23.37;;;12.17;;
32826;SDS011;51059;42.058;27.986;2022-09-01T02:09:01;24.27;;;12.63;;
32826;SDS011;51059;42.058;27.986;2022-09-01T02:11:28;21.67;;;11.00;;
32826;SDS011;51059;42.058;27.986;2022-09-01T02:13:54;21.80;;;12.10;;
32826;SDS011;51059;42.058;27.986;2022-09-01T02:16:21;25.73;;;12.30;;
32826;SDS011;51059;42.058;27.986;2022-09-01T02:18:47;23.23;;;12.60;;
32826;SDS011;51059;42.058;27.986;2022-09-01T02:21:13;20.77;;;12.50;;
32826;SDS011;51059;42.058;27.986;2022-09-01T02:23:39;22.33;;;12.57;;
32826;SDS011;51059;42.058;27.986;2022-09-01T02:26:06;24.73;;;12.87;;
32826;SDS011;51059;42.058;27.986;2022-09-01T02:28:34;19.30;;;12.20;;
32826;SDS011;51059;42.058;27.986;2022-09-01T02:31:01;27.03;;;12.57;;
32826;SDS011;51059;42.058;27.986;2022-09-01T02:33:27;24.07;;;12.13;;
32826;SDS011;51059;42.058;27.986;2022-09-01T02:35:55;22.60;;;12.17;;
32826;SDS011;51059;42.058;27.986;2022-09-01T02:38:21;24.17;;;12.87;;
32826;SDS011;51059;42.058;27.986;2022-09-01T02:40:50;23.30;;;12.57;;
32826;SDS011;51059;42.058;27.986;2022-09-01T02:43:16;19.27;;;11.73;;
32826;SDS011;51059;42.058;27.986;2022-09-01T02:45:44;20.33;;;12.77;;
32826;SDS011;51059;42.058;27.986;2022-09-01T02:48:11;23.23;;;12.10;;
32826;SDS011;51059;42.058;27.986;2022-09-01T02:50:37;19.33;;;12.03;;
32826;SDS011;51059;42.058;27.986;2022-09-01T02:53:03;19.50;;;12.60;;
32826;SDS011;51059;42.058;27.986;2022-09-01T02:55:34;28.57;;;11.90;;
32826;SDS011;51059;42.058;27.986;2022-09-01T02:57:59;21.80;;;12.13;;
32826;SDS011;51059;42.058;27.986;2022-09-01T03:00:24;21.40;;;12.33;;
32826;SDS011;51059;42.058;27.986;2022-09-01T03:02:56;17.63;;;12.00;;
32826;SDS011;51059;42.058;27.986;2022-09-01T03:05:23;20.53;;;12.00;;
32826;SDS011;51059;42.058;27.986;2022-09-01T03:08:00;22.67;;;12.60;;
32826;SDS011;51059;42.058;27.986;2022-09-01T03:10:30;20.07;;;11.77;;
32826;SDS011;51059;42.058;27.986;2022-09-01T03:13:19;21.80;;;12.20;;
32826;SDS011;51059;42.058;27.986;2022-09-01T03:15:45;22.97;;;13.23;;
32826;SDS011;51059;42.058;27.986;2022-09-01T03:18:11;18.30;;;12.23;;
32826;SDS011;51059;42.058;27.986;2022-09-01T03:20:37;20.73;;;12.00;;
32826;SDS011;51059;42.058;27.986;2022-09-01T03:23:04;19.93;;;12.50;;
32826;SDS011;51059;42.058;27.986;2022-09-01T03:25:30;17.50;;;12.43;;
32826;SDS011;51059;42.058;27.986;2022-09-01T03:27:56;22.57;;;11.90;;
32826;SDS011;51059;42.058;27.986;2022-09-01T03:30:29;23.80;;;12.37;;
32826;SDS011;51059;42.058;27.986;2022-09-01T03:32:55;17.83;;;11.87;;
32826;SDS011;51059;42.058;27.986;2022-09-01T03:35:21;15.33;;;12.30;;
32826;SDS011;51059;42.058;27.986;2022-09-01T03:37:47;18.40;;;12.00;;
32826;SDS011;51059;42.058;27.986;2022-09-01T03:40:12;16.70;;;11.57;;
32826;SDS011;51059;42.058;27.986;2022-09-01T03:42:38;24.93;;;11.70;;
32826;SDS011;51059;42.058;27.986;2022-09-01T03:45:03;23.93;;;11.70;;
32826;SDS011;51059;42.058;27.986;2022-09-01T03:47:33;22.57;;;11.90;;
32826;SDS011;51059;42.058;27.986;2022-09-01T03:50:03;22.87;;;11.53;;
32826;SDS011;51059;42.058;27.986;2022-09-01T03:52:29;17.90;;;12.10;;
32826;SDS011;51059;42.058;27.986;2022-09-01T03:54:54;20.83;;;11.80;;
32826;SDS011;51059;42.058;27.986;2022-09-01T03:57:20;16.97;;;11.20;;
32826;SDS011;51059;42.058;27.986;2022-09-01T03:59:47;19.53;;;11.60;;
32826;SDS011;51059;42.058;27.986;2022-09-01T04:02:13;23.33;;;12.80;;
32826;SDS011;51059;42.058;27.986;2022-09-01T04:04:39;23.47;;;12.07;;
32826;SDS011;51059;42.058;27.986;2022-09-01T04:07:04;23.03;;;11.53;;
32826;SDS011;51059;42.058;27.986;2022-09-01T04:09:31;25.43;;;12.47;;
32826;SDS011;51059;42.058;27.986;2022-09-01T04:11:56;19.73;;;12.30;;
32826;SDS011;51059;42.058;27.986;2022-09-01T04:14:23;22.00;;;11.87;;
32826;SDS011;51059;42.058;27.986;2022-09-01T04:16:51;21.10;;;11.90;;
32826;SDS011;51059;42.058;27.986;2022-09-01T04:19:35;18.63;;;11.50;;
32826;SDS011;51059;42.058;27.986;2022-09-01T04:22:02;21.33;;;12.13;;
32826;SDS011;51059;42.058;27.986;2022-09-01T04:24:29;21.33;;;11.40;;
32826;SDS011;51059;42.058;27.986;2022-09-01T04:26:55;18.10;;;12.57;;
32826;SDS011;51059;42.058;27.986;2022-09-01T04:29:23;17.93;;;11.60;;
32826;SDS011;51059;42.058;27.986;2022-09-01T04:31:52;17.70;;;11.80;;
32826;SDS011;51059;42.058;27.986;2022-09-01T04:34:18;18.93;;;11.77;;
32826;SDS011;51059;42.058;27.986;2022-09-01T04:36:44;16.30;;;11.40;;
32826;SDS011;51059;42.058;27.986;2022-09-01T04:39:10;21.80;;;12.17;;
32826;SDS011;51059;42.058;27.986;2022-09-01T04:41:39;18.90;;;11.60;;
32826;SDS011;51059;42.058;27.986;2022-09-01T04:44:05;13.90;;;11.20;;
32826;SDS011;51059;42.058;27.986;2022-09-01T04:46:32;23.07;;;12.07;;
32826;SDS011;51059;42.058;27.986;2022-09-01T04:49:00;22.97;;;11.90;;
32826;SDS011;51059;42.058;27.986;2022-09-01T04:51:30;17.00;;;10.80;;
32826;SDS011;51059;42.058;27.986;2022-09-01T04:53:56;16.80;;;11.00;;
32826;SDS011;51059;42.058;27.986;2022-09-01T04:56:22;21.23;;;11.80;;
32826;SDS011;51059;42.058;27.986;2022-09-01T04:58:49;18.40;;;12.10;;
32826;SDS011;51059;42.058;27.986;2022-09-01T05:03:39;19.03;;;11.13;;
32826;SDS011;51059;42.058;27.986;2022-09-01T05:06:10;16.20;;;11.33;;
32826;SDS011;51059;42.058;27.986;2022-09-01T05:08:37;16.47;;;12.03;;
32826;SDS011;51059;42.058;27.986;2022-09-01T05:11:04;26.03;;;12.00;;
32826;SDS011;51059;42.058;27.986;2022-09-01T05:13:31;20.70;;;11.43;;
32826;SDS011;51059;42.058;27.986;2022-09-01T05:16:00;21.60;;;11.70;;
32826;SDS011;51059;42.058;27.986;2022-09-01T05:18:26;20.77;;;11.03;;
32826;SDS011;51059;42.058;27.986;2022-09-01T05:20:52;22.53;;;11.47;;
32826;SDS011;51059;42.058;27.986;2022-09-01T05:23:18;23.30;;;11.50;;
32826;SDS011;51059;42.058;27.986;2022-09-01T05:25:48;17.37;;;11.43;;
32826;SDS011;51059;42.058;27.986;2022-09-01T05:28:14;19.70;;;11.67;;
32826;SDS011;51059;42.058;27.986;2022-09-01T05:30:41;20.47;;;12.00;;
32826;SDS011;51059;42.058;27.986;2022-09-01T05:33:07;18.40;;;11.63;;
32826;SDS011;51059;42.058;27.986;2022-09-01T05:35:36;20.57;;;11.90;;
32826;SDS011;51059;42.058;27.986;2022-09-01T05:38:02;19.93;;;11.83;;
32826;SDS011;51059;42.058;27.986;2022-09-01T05:40:28;21.77;;;11.97;;
32826;SDS011;51059;42.058;27.986;2022-09-01T05:42:54;22.37;;;11.73;;
32826;SDS011;51059;42.058;27.986;2022-09-01T05:45:20;18.38;;;12.20;;
32826;SDS011;51059;42.058;27.986;2022-09-01T05:47:47;25.00;;;15.43;;
32826;SDS011;51059;42.058;27.986;2022-09-01T05:50:12;19.27;;;12.10;;
32826;SDS011;51059;42.058;27.986;2022-09-01T05:52:40;22.63;;;12.03;;
32826;SDS011;51059;42.058;27.986;2022-09-01T05:55:08;21.40;;;11.90;;
32826;SDS011;51059;42.058;27.986;2022-09-01T05:57:34;20.60;;;12.03;;
32826;SDS011;51059;42.058;27.986;2022-09-01T06:00:01;23.70;;;12.00;;
32826;SDS011;51059;42.058;27.986;2022-09-01T06:02:28;18.03;;;11.17;;
32826;SDS011;51059;42.058;27.986;2022-09-01T06:04:54;17.73;;;11.87;;
32826;SDS011;51059;42.058;27.986;2022-09-01T06:07:21;26.27;;;12.23;;
32826;SDS011;51059;42.058;27.986;2022-09-01T06:09:47;19.67;;;12.43;;
32826;SDS011;51059;42.058;27.986;2022-09-01T06:12:13;22.40;;;11.40;;
32826;SDS011;51059;42.058;27.986;2022-09-01T06:14:43;18.93;;;12.00;;
32826;SDS011;51059;42.058;27.986;2022-09-01T06:17:09;18.57;;;11.37;;
32826;SDS011;51059;42.058;27.986;2022-09-01T06:19:35;17.33;;;11.23;;
32826;SDS011;51059;42.058;27.986;2022-09-01T06:22:02;20.00;;;12.23;;
32826;SDS011;51059;42.058;27.986;2022-09-01T06:24:27;18.80;;;11.43;;
32826;SDS011;51059;42.058;27.986;2022-09-01T06:26:53;17.53;;;11.77;;
32826;SDS011;51059;42.058;27.986;2022-09-01T06:29:19;25.13;;;12.07;;
32826;SDS011;51059;42.058;27.986;2022-09-01T06:31:45;20.43;;;11.80;;
32826;SDS011;51059;42.058;27.986;2022-09-01T06:34:15;23.37;;;11.60;;
32826;SDS011;51059;42.058;27.986;2022-09-01T06:36:42;24.40;;;11.33;;
32826;SDS011;51059;42.058;27.986;2022-09-01T06:39:08;25.47;;;11.50;;
32826;SDS011;51059;42.058;27.986;2022-09-01T06:41:38;19.50;;;11.47;;
32826;SDS011;51059;42.058;27.986;2022-09-01T06:44:03;20.33;;;11.83;;
32826;SDS011;51059;42.058;27.986;2022-09-01T06:46:29;18.70;;;11.83;;
32826;SDS011;51059;42.058;27.986;2022-09-01T06:48:54;20.87;;;11.77;;
32826;SDS011;51059;42.058;27.986;2022-09-01T06:51:23;23.37;;;11.57;;
32826;SDS011;51059;42.058;27.986;2022-09-01T06:53:50;17.30;;;11.77;;
32826;SDS011;51059;42.058;27.986;2022-09-01T06:56:17;19.97;;;11.77;;
32826;SDS011;51059;42.058;27.986;2022-09-01T06:58:43;18.63;;;11.77;;
32826;SDS011;51059;42.058;27.986;2022-09-01T07:01:12;18.57;;;11.53;;
32826;SDS011;51059;42.058;27.986;2022-09-01T07:03:42;15.93;;;12.33;;
32826;SDS011;51059;42.058;27.986;2022-09-01T07:06:08;21.40;;;12.23;;
32826;SDS011;51059;42.058;27.986;2022-09-01T07:08:34;20.13;;;11.27;;
32826;SDS011;51059;42.058;27.986;2022-09-01T07:11:07;20.37;;;11.43;;
32826;SDS011;51059;42.058;27.986;2022-09-01T07:13:33;15.60;;;11.30;;
32826;SDS011;51059;42.058;27.986;2022-09-01T07:16:00;23.30;;;11.97;;
32826;SDS011;51059;42.058;27.986;2022-09-01T07:18:26;17.80;;;11.33;;
32826;SDS011;51059;42.058;27.986;2022-09-01T07:20:52;21.27;;;12.57;;
32826;SDS011;51059;42.058;27.986;2022-09-01T07:23:18;18.90;;;12.00;;
32826;SDS011;51059;42.058;27.986;2022-09-01T07:25:46;20.63;;;12.33;;
32826;SDS011;51059;42.058;27.986;2022-09-01T07:28:12;21.73;;;12.90;;
32826;SDS011;51059;42.058;27.986;2022-09-01T07:30:44;18.67;;;12.57;;
32826;SDS011;51059;42.058;27.986;2022-09-01T07:33:12;23.37;;;13.10;;
32826;SDS011;51059;42.058;27.986;2022-09-01T07:35:38;21.30;;;13.10;;
32826;SDS011;51059;42.058;27.986;2022-09-01T07:38:04;26.63;;;13.23;;
32826;SDS011;51059;42.058;27.986;2022-09-01T07:40:33;17.50;;;12.13;;
32826;SDS011;51059;42.058;27.986;2022-09-01T07:43:02;20.17;;;12.87;;
32826;SDS011;51059;42.058;27.986;2022-09-01T07:45:32;25.97;;;12.80;;
32826;SDS011;51059;42.058;27.986;2022-09-01T07:47:59;26.07;;;13.43;;
32826;SDS011;51059;42.058;27.986;2022-09-01T07:50:30;19.13;;;12.43;;
32826;SDS011;51059;42.058;27.986;2022-09-01T07:52:56;23.73;;;12.30;;
32826;SDS011;51059;42.058;27.986;2022-09-01T07:55:21;18.73;;;12.37;;
32826;SDS011;51059;42.058;27.986;2022-09-01T07:57:47;25.00;;;11.70;;
32826;SDS011;51059;42.058;27.986;2022-09-01T08:00:13;17.63;;;12.10;;
32826;SDS011;51059;42.058;27.986;2022-09-01T08:02:39;23.57;;;12.30;;
32826;SDS011;51059;42.058;27.986;2022-09-01T08:05:05;16.53;;;11.97;;
32826;SDS011;51059;42.058;27.986;2022-09-01T08:07:36;18.17;;;11.43;;
32826;SDS011;51059;42.058;27.986;2022-09-01T08:10:02;28.10;;;11.73;;
32826;SDS011;51059;42.058;27.986;2022-09-01T08:12:28;20.93;;;12.60;;
32826;SDS011;51059;42.058;27.986;2022-09-01T08:14:53;17.40;;;12.37;;
32826;SDS011;51059;42.058;27.986;2022-09-01T08:17:19;22.60;;;12.53;;
32826;SDS011;51059;42.058;27.986;2022-09-01T08:19:45;24.20;;;12.03;;
32826;SDS011;51059;42.058;27.986;2022-09-01T08:22:11;18.35;;;12.50;;
32826;SDS011;51059;42.058;27.986;2022-09-01T08:24:37;23.77;;;12.53;;
32826;SDS011;51059;42.058;27.986;2022-09-01T08:27:02;21.00;;;12.50;;
32826;SDS011;51059;42.058;27.986;2022-09-01T08:29:28;21.73;;;12.57;;
32826;SDS011;51059;42.058;27.986;2022-09-01T08:31:54;21.83;;;12.47;;
32826;SDS011;51059;42.058;27.986;2022-09-01T08:34:19;22.43;;;12.57;;
32826;SDS011;51059;42.058;27.986;2022-09-01T08:36:45;19.87;;;11.37;;
32826;SDS011;51059;42.058;27.986;2022-09-01T08:39:10;17.77;;;12.17;;
32826;SDS011;51059;42.058;27.986;2022-09-01T08:41:40;17.60;;;11.20;;
32826;SDS011;51059;42.058;27.986;2022-09-01T08:44:08;17.73;;;11.27;;
32826;SDS011;51059;42.058;27.986;2022-09-01T08:46:39;16.93;;;11.03;;
32826;SDS011;51059;42.058;27.986;2022-09-01T08:49:12;22.75;;;11.75;;
32826;SDS011;51059;42.058;27.986;2022-09-01T08:51:42;21.50;;;11.53;;
32826;SDS011;51059;42.058;27.986;2022-09-01T08:56:46;22.00;;;11.53;;
32826;SDS011;51059;42.058;27.986;2022-09-01T08:59:11;22.20;;;11.43;;
32826;SDS011;51059;42.058;27.986;2022-09-01T09:01:42;18.00;;;10.70;;
32826;SDS011;51059;42.058;27.986;2022-09-01T09:06:56;19.33;;;11.23;;
32826;SDS011;51059;42.058;27.986;2022-09-01T09:09:32;19.00;;;11.10;;
32826;SDS011;51059;42.058;27.986;2022-09-01T09:12:36;21.08;;;10.70;;
32826;SDS011;51059;42.058;27.986;2022-09-01T09:17:29;16.90;;;10.30;;
32826;SDS011;51059;42.058;27.986;2022-09-01T09:19:59;18.08;;;10.25;;
32826;SDS011;51059;42.058;27.986;2022-09-01T09:22:24;15.60;;;10.00;;
32826;SDS011;51059;42.058;27.986;2022-09-01T09:24:54;16.52;;;10.30;;
32826;SDS011;51059;42.058;27.986;2022-09-01T09:27:26;20.10;;;10.15;;
32826;SDS011;51059;42.058;27.986;2022-09-01T09:29:53;17.67;;;9.97;;
32826;SDS011;51059;42.058;27.986;2022-09-01T09:32:19;19.38;;;10.27;;
32826;SDS011;51059;42.058;27.986;2022-09-01T09:34:45;13.95;;;9.57;;
32826;SDS011;51059;42.058;27.986;2022-09-01T09:37:25;15.97;;;10.27;;
32826;SDS011;51059;42.058;27.986;2022-09-01T09:40:12;15.85;;;9.40;;
32826;SDS011;51059;42.058;27.986;2022-09-01T09:42:38;17.38;;;9.30;;
32826;SDS011;51059;42.058;27.986;2022-09-01T09:45:14;21.35;;;9.70;;
32826;SDS011;51059;42.058;27.986;2022-09-01T09:47:41;20.20;;;9.95;;
32826;SDS011;51059;42.058;27.986;2022-09-01T09:50:40;22.55;;;9.60;;
32826;SDS011;51059;42.058;27.986;2022-09-01T09:53:12;19.48;;;10.43;;
32826;SDS011;51059;42.058;27.986;2022-09-01T09:55:52;19.67;;;9.55;;
32826;SDS011;51059;42.058;27.986;2022-09-01T09:58:18;19.10;;;10.02;;
32826;SDS011;51059;42.058;27.986;2022-09-01T10:00:57;17.25;;;9.38;;
32826;SDS011;51059;42.058;27.986;2022-09-01T10:03:32;16.38;;;9.57;;
32826;SDS011;51059;42.058;27.986;2022-09-01T10:05:58;22.73;;;10.18;;
32826;SDS011;51059;42.058;27.986;2022-09-01T10:10:54;16.52;;;10.27;;
32826;SDS011;51059;42.058;27.986;2022-09-01T10:13:20;20.35;;;10.57;;
32826;SDS011;51059;42.058;27.986;2022-09-01T10:15:47;16.08;;;10.45;;
32826;SDS011;51059;42.058;27.986;2022-09-01T10:18:14;19.38;;;9.30;;
32826;SDS011;51059;42.058;27.986;2022-09-01T10:20:43;19.05;;;10.77;;
32826;SDS011;51059;42.058;27.986;2022-09-01T10:23:10;19.65;;;9.68;;
32826;SDS011;51059;42.058;27.986;2022-09-01T10:25:35;12.27;;;9.20;;
32826;SDS011;51059;42.058;27.986;2022-09-01T10:28:11;17.52;;;9.00;;
32826;SDS011;51059;42.058;27.986;2022-09-01T10:30:40;17.60;;;9.40;;
32826;SDS011;51059;42.058;27.986;2022-09-01T10:33:07;18.25;;;9.40;;
32826;SDS011;51059;42.058;27.986;2022-09-01T10:35:33;14.30;;;9.13;;
32826;SDS011;51059;42.058;27.986;2022-09-01T10:38:01;16.58;;;8.68;;
32826;SDS011;51059;42.058;27.986;2022-09-01T10:42:56;12.18;;;8.80;;
32826;SDS011;51059;42.058;27.986;2022-09-01T10:45:35;18.77;;;9.30;;
32826;SDS011;51059;42.058;27.986;2022-09-01T10:50:48;18.17;;;9.30;;
32826;SDS011;51059;42.058;27.986;2022-09-01T10:53:59;17.85;;;9.70;;
32826;SDS011;51059;42.058;27.986;2022-09-01T10:56:05;13.95;;;9.25;;
32826;SDS011;51059;42.058;27.986;2022-09-01T10:58:34;15.38;;;8.65;;
32826;SDS011;51059;42.058;27.986;2022-09-01T11:01:03;17.95;;;8.98;;
32826;SDS011;51059;42.058;27.986;2022-09-01T11:03:44;16.90;;;9.38;;
32826;SDS011;51059;42.058;27.986;2022-09-01T11:06:30;15.73;;;8.75;;
32826;SDS011;51059;42.058;27.986;2022-09-01T11:09:00;19.73;;;8.68;;
32826;SDS011;51059;42.058;27.986;2022-09-01T11:11:41;15.85;;;8.48;;
32826;SDS011;51059;42.058;27.986;2022-09-01T11:14:20;14.23;;;8.60;;
32826;SDS011;51059;42.058;27.986;2022-09-01T11:19:32;18.48;;;6.20;;
32826;SDS011;51059;42.058;27.986;2022-09-01T11:24:44;18.35;;;6.88;;
32826;SDS011;51059;42.058;27.986;2022-09-01T11:27:12;21.55;;;7.63;;
32826;SDS011;51059;42.058;27.986;2022-09-01T11:32:26;14.55;;;6.70;;
32826;SDS011;51059;42.058;27.986;2022-09-01T11:34:55;17.00;;;6.70;;
32826;SDS011;51059;42.058;27.986;2022-09-01T11:37:22;9.77;;;6.13;;
32826;SDS011;51059;42.058;27.986;2022-09-01T11:39:48;15.02;;;6.22;;
32826;SDS011;51059;42.058;27.986;2022-09-01T11:47:51;12.63;;;5.07;;
32826;SDS011;51059;42.058;27.986;2022-09-01T11:49:58;11.68;;;4.30;;
32826;SDS011;51059;42.058;27.986;2022-09-01T11:52:26;9.63;;;4.00;;
32826;SDS011;51059;42.058;27.986;2022-09-01T11:54:52;9.93;;;3.97;;
32826;SDS011;51059;42.058;27.986;2022-09-01T11:57:34;9.07;;;4.13;;
32826;SDS011;51059;42.058;27.986;2022-09-01T12:00:04;12.18;;;5.50;;
32826;SDS011;51059;42.058;27.986;2022-09-01T12:02:31;15.88;;;6.82;;
32826;SDS011;51059;42.058;27.986;2022-09-01T12:05:00;18.35;;;8.70;;
32826;SDS011;51059;42.058;27.986;2022-09-01T12:07:27;20.42;;;7.65;;
32826;SDS011;51059;42.058;27.986;2022-09-01T12:09:54;17.27;;;7.97;;
32826;SDS011;51059;42.058;27.986;2022-09-01T12:12:27;17.77;;;7.45;;
32826;SDS011;51059;42.058;27.986;2022-09-01T12:14:57;14.75;;;6.53;;
32826;SDS011;51059;42.058;27.986;2022-09-01T12:17:23;14.13;;;6.70;;
32826;SDS011;51059;42.058;27.986;2022-09-01T12:19:48;19.52;;;6.50;;
32826;SDS011;51059;42.058;27.986;2022-09-01T12:22:14;15.55;;;6.60;;
32826;SDS011;51059;42.058;27.986;2022-09-01T12:24:43;14.27;;;7.07;;
32826;SDS011;51059;42.058;27.986;2022-09-01T12:27:09;17.20;;;7.20;;
32826;SDS011;51059;42.058;27.986;2022-09-01T12:29:36;15.20;;;7.55;;
32826;SDS011;51059;42.058;27.986;2022-09-01T12:32:02;12.48;;;6.68;;
32826;SDS011;51059;42.058;27.986;2022-09-01T12:34:57;10.85;;;5.03;;
32826;SDS011;51059;42.058;27.986;2022-09-01T12:37:24;11.57;;;5.03;;
32826;SDS011;51059;42.058;27.986;2022-09-01T12:39:51;13.13;;;5.35;;
32826;SDS011;51059;42.058;27.986;2022-09-01T12:47:57;17.38;;;7.00;;
32826;SDS011;51059;42.058;27.986;2022-09-01T12:49:58;16.30;;;6.50;;
32826;SDS011;51059;42.058;27.986;2022-09-01T12:52:24;16.50;;;5.70;;
32826;SDS011;51059;42.058;27.986;2022-09-01T12:54:51;14.93;;;5.85;;
32826;SDS011;51059;42.058;27.986;2022-09-01T12:57:36;12.27;;;5.30;;
32826;SDS011;51059;42.058;27.986;2022-09-01T13:02:50;11.80;;;4.68;;
32826;SDS011;51059;42.058;27.986;2022-09-01T13:05:28;13.05;;;5.20;;
32826;SDS011;51059;42.058;27.986;2022-09-01T13:07:55;10.43;;;5.10;;
32826;SDS011;51059;42.058;27.986;2022-09-01T13:10:24;9.57;;;4.93;;
32826;SDS011;51059;42.058;27.986;2022-09-01T13:12:52;14.02;;;4.63;;
32826;SDS011;51059;42.058;27.986;2022-09-01T13:15:17;7.50;;;4.88;;
32826;SDS011;51059;42.058;27.986;2022-09-01T13:17:43;13.90;;;6.72;;
32826;SDS011;51059;42.058;27.986;2022-09-01T13:20:08;10.27;;;6.80;;
32826;SDS011;51059;42.058;27.986;2022-09-01T13:22:36;10.50;;;6.60;;
32826;SDS011;51059;42.058;27.986;2022-09-01T13:25:02;9.95;;;5.10;;
32826;SDS011;51059;42.058;27.986;2022-09-01T13:27:27;7.20;;;4.80;;
32826;SDS011;51059;42.058;27.986;2022-09-01T13:29:53;11.48;;;5.00;;
32826;SDS011;51059;42.058;27.986;2022-09-01T13:32:19;9.13;;;5.30;;
32826;SDS011;51059;42.058;27.986;2022-09-01T13:34:44;11.00;;;5.75;;
32826;SDS011;51059;42.058;27.986;2022-09-01T13:37:10;11.82;;;5.88;;
32826;SDS011;51059;42.058;27.986;2022-09-01T13:39:35;11.93;;;5.70;;
32826;SDS011;51059;42.058;27.986;2022-09-01T13:42:00;15.23;;;7.10;;
32826;SDS011;51059;42.058;27.986;2022-09-01T13:44:26;13.35;;;7.40;;
32826;SDS011;51059;42.058;27.986;2022-09-01T13:46:51;13.68;;;8.15;;
32826;SDS011;51059;42.058;27.986;2022-09-01T13:49:17;11.13;;;7.43;;
32826;SDS011;51059;42.058;27.986;2022-09-01T13:51:43;17.48;;;8.40;;
32826;SDS011;51059;42.058;27.986;2022-09-01T13:54:14;15.00;;;8.73;;
32826;SDS011;51059;42.058;27.986;2022-09-01T13:56:39;11.75;;;9.07;;
32826;SDS011;51059;42.058;27.986;2022-09-01T13:59:05;11.98;;;9.45;;
32826;SDS011;51059;42.058;27.986;2022-09-01T14:01:30;16.48;;;9.90;;
32826;SDS011;51059;42.058;27.986;2022-09-01T14:03:55;18.38;;;10.23;;
32826;SDS011;51059;42.058;27.986;2022-09-01T14:06:22;19.30;;;10.55;;
32826;SDS011;51059;42.058;27.986;2022-09-01T14:08:47;20.83;;;10.60;;
32826;SDS011;51059;42.058;27.986;2022-09-01T14:11:15;20.20;;;10.57;;
32826;SDS011;51059;42.058;27.986;2022-09-01T14:13:40;21.65;;;10.52;;
32826;SDS011;51059;42.058;27.986;2022-09-01T14:16:09;20.77;;;11.13;;
32826;SDS011;51059;42.058;27.986;2022-09-01T14:18:35;19.42;;;11.50;;
32826;SDS011;51059;42.058;27.986;2022-09-01T14:21:01;18.83;;;10.85;;
32826;SDS011;51059;42.058;27.986;2022-09-01T14:23:27;21.88;;;11.55;;
32826;SDS011;51059;42.058;27.986;2022-09-01T14:25:52;24.73;;;11.63;;
32826;SDS011;51059;42.058;27.986;2022-09-01T14:28:18;25.45;;;11.20;;
32826;SDS011;51059;42.058;27.986;2022-09-01T14:30:44;19.45;;;11.63;;
32826;SDS011;51059;42.058;27.986;2022-09-01T14:33:10;16.55;;;11.55;;
32826;SDS011;51059;42.058;27.986;2022-09-01T14:35:38;23.55;;;11.77;;
32826;SDS011;51059;42.058;27.986;2022-09-01T14:38:03;23.98;;;11.48;;
32826;SDS011;51059;42.058;27.986;2022-09-01T14:40:32;22.05;;;11.20;;
32826;SDS011;51059;42.058;27.986;2022-09-01T14:42:58;18.92;;;11.20;;
32826;SDS011;51059;42.058;27.986;2022-09-01T14:45:25;23.15;;;11.60;;
32826;SDS011;51059;42.058;27.986;2022-09-01T14:47:52;20.38;;;11.73;;
32826;SDS011;51059;42.058;27.986;2022-09-01T14:50:18;18.20;;;11.48;;
32826;SDS011;51059;42.058;27.986;2022-09-01T14:52:45;22.90;;;11.52;;
32826;SDS011;51059;42.058;27.986;2022-09-01T14:55:11;18.05;;;11.35;;
32826;SDS011;51059;42.058;27.986;2022-09-01T14:57:36;20.77;;;11.85;;
32826;SDS011;51059;42.058;27.986;2022-09-01T15:00:05;20.77;;;11.80;;